Time;durP1;ratioP1;P1;durP2;ratioP2;P2;SDS_P1;SDS_P2;PMS_P1;PMS_P2;Temp;Humidity;BMP_temperature;BMP_pressure;BME280_temperature;BME280_humidity;BME280_pressure;Samples;Min_cycle;Max_cycle;Signal;HPM_P1;HPM_P2
2023/03/16 05:09:39;;;;;;;15.48;8.15;;;;;;;0.53;79.65;100557.16;5555504;32;292016;-83
2023/03/16 05:12:42;;;;;;;13.13;6.57;;;;;;;0.44;80.71;100567.66;5547582;32;33977;-84
2023/03/16 05:15:48;;;;;;;11.73;6.30;;;;;;;0.55;79.87;100570.19;5553529;32;34393;-84
2023/03/16 05:18:51;;;;;;;13.68;6.68;;;;;;;0.57;80.22;100568.44;5554649;32;33757;-84
2023/03/16 05:21:55;;;;;;;12.70;6.15;;;;;;;0.58;80.33;100565.81;5550021;32;34100;-87
2023/03/16 05:25:02;;;;;;;16.20;6.93;;;;;;;0.58;80.77;100570.16;5546763;32;34141;-84
2023/03/16 05:28:05;;;;;;;18.92;7.62;;;;;;;0.64;80.08;100580.56;5544450;32;33840;-85
2023/03/16 05:31:08;;;;;;;15.77;7.07;;;;;;;0.74;79.12;100576.16;5544098;32;34451;-84
2023/03/16 05:34:12;;;;;;;10.00;6.22;;;;;;;0.78;78.76;100576.16;5544666;32;33616;-84
2023/03/16 05:37:15;;;;;;;14.77;6.93;;;;;;;0.77;79.56;100577.03;5545071;32;33876;-84
2023/03/16 05:40:17;;;;;;;19.75;7.05;;;;;;;0.87;78.70;100584.81;5546462;32;34356;-84
2023/03/16 05:43:21;;;;;;;15.02;6.78;;;;;;;0.84;78.77;100585.69;5551612;32;33825;-84
2023/03/16 05:46:24;;;;;;;13.65;6.55;;;;;;;0.91;79.37;100582.16;5547456;32;34067;-83
2023/03/16 05:49:27;;;;;;;15.80;7.47;;;;;;;1.00;78.36;100585.63;5548371;32;34073;-84
2023/03/16 05:52:30;;;;;;;14.35;7.12;;;;;;;0.98;78.32;100593.44;5546039;32;34009;-84
2023/03/16 05:55:34;;;;;;;11.63;6.75;;;;;;;1.12;77.68;100588.12;5545704;32;34447;-84
2023/03/16 05:58:37;;;;;;;16.40;7.22;;;;;;;1.18;76.29;100592.44;5545644;32;34352;-84
2023/03/16 06:01:41;;;;;;;12.57;6.75;;;;;;;1.18;76.72;100595.06;5545184;32;33974;-84
2023/03/16 06:04:43;;;;;;;12.45;7.28;;;;;;;1.25;76.33;100599.34;5545118;32;34506;-82
2023/03/16 06:07:47;;;;;;;12.98;7.10;;;;;;;1.34;76.28;100612.38;5546284;32;33943;-83
2023/03/16 06:10:50;;;;;;;19.23;7.93;;;;;;;1.51;75.54;100610.50;5545234;32;34363;-82
2023/03/16 06:13:56;;;;;;;12.10;7.28;;;;;;;1.58;75.23;100614.78;5544219;32;33777;-82
2023/03/16 06:16:59;;;;;;;13.00;6.85;;;;;;;1.76;74.74;100613.72;5541146;32;33891;-83
2023/03/16 06:20:09;;;;;;;12.68;7.28;;;;;;;3.21;67.25;100620.72;5533478;32;34832;-83
2023/03/16 06:23:13;;;;;;;13.62;6.80;;;;;;;4.92;59.99;100626.34;5530312;32;33806;-81
2023/03/16 06:26:16;;;;;;;11.02;6.45;;;;;;;5.49;56.46;100629.41;5532157;32;35264;-83
2023/03/16 06:29:20;;;;;;;13.05;6.28;;;;;;;6.57;53.45;100630.97;5530409;32;34118;-83
2023/03/16 06:32:23;;;;;;;11.93;6.28;;;;;;;6.50;51.83;100633.84;5531783;32;33883;-83
2023/03/16 06:35:27;;;;;;;13.07;6.93;;;;;;;5.79;53.62;100642.72;5530389;32;34470;-84
2023/03/16 06:38:32;;;;;;;12.63;6.53;;;;;;;5.24;56.02;100645.78;5531671;32;33856;-83
2023/03/16 06:41:36;;;;;;;12.57;6.95;;;;;;;4.52;57.78;100654.34;5533275;32;33939;-83
2023/03/16 06:44:40;;;;;;;12.95;7.18;;;;;;;4.22;60.16;100657.50;5532558;32;35062;-83
2023/03/16 06:47:43;;;;;;;15.55;6.72;;;;;;;3.97;60.97;100657.97;5533106;32;33973;-83
2023/03/16 06:50:46;;;;;;;12.88;6.65;;;;;;;4.11;60.44;100662.09;5534213;32;34449;-83
2023/03/16 06:53:50;;;;;;;10.00;6.85;;;;;;;4.34;60.28;100664.31;5534511;32;34362;-82
2023/03/16 06:56:53;;;;;;;13.62;6.78;;;;;;;4.90;58.15;100673.69;5532477;32;34625;-83
2023/03/16 06:59:56;;;;;;;11.18;6.40;;;;;;;6.38;52.94;100671.94;5535705;32;34671;-84
2023/03/16 07:03:03;;;;;;;10.20;6.35;;;;;;;7.46;48.93;100678.44;5532840;32;34667;-84
2023/03/16 07:06:08;;;;;;;8.90;5.85;;;;;;;8.91;44.35;100676.16;5541332;32;34245;-83
2023/03/16 07:09:11;;;;;;;10.63;6.15;;;;;;;9.74;43.92;100683.47;5535911;32;33829;-82
2023/03/16 07:12:14;;;;;;;10.65;6.43;;;;;;;11.21;39.39;100693.94;5527568;32;33880;-83
2023/03/16 07:15:17;;;;;;;9.07;6.15;;;;;;;8.87;42.77;100695.69;5527211;32;34180;-83
2023/03/16 07:18:21;;;;;;;11.68;6.70;;;;;;;8.52;45.31;100704.00;5532004;32;34014;-83
2023/03/16 07:21:24;;;;;;;13.27;6.68;;;;;;;10.35;42.57;100698.59;5544213;32;33798;-84
2023/03/16 07:24:27;;;;;;;11.43;6.32;;;;;;;11.85;38.67;100705.88;5547289;32;32471;-87
2023/03/16 07:27:31;;;;;;;9.68;6.70;;;;;;;11.41;38.35;100709.75;5531406;32;34709;-89
2023/03/16 07:30:34;;;;;;;10.73;6.53;;;;;;;11.95;37.81;100708.06;5548731;32;34212;-88
2023/03/16 07:33:37;;;;;;;11.95;6.60;;;;;;;14.48;33.45;100714.69;5551014;32;34193;-89
2023/03/16 07:36:40;;;;;;;13.95;7.30;;;;;;;13.62;33.96;100710.81;5544909;32;34056;-87
2023/03/16 07:39:43;;;;;;;10.57;6.50;;;;;;;12.52;35.43;100710.50;5530065;32;34364;-87
2023/03/16 07:42:46;;;;;;;8.63;6.50;;;;;;;13.73;33.33;100711.06;5522829;32;33988;-86
2023/03/16 07:45:50;;;;;;;10.32;6.28;;;;;;;16.89;28.38;100706.19;5532923;32;33970;-86
2023/03/16 07:48:53;;;;;;;13.75;6.72;;;;;;;18.30;27.06;100710.25;5518051;32;34451;-88
2023/03/16 07:51:56;;;;;;;12.55;6.70;;;;;;;17.81;26.31;100706.78;5530920;32;33937;-84
2023/03/16 07:55:00;;;;;;;10.40;6.47;;;;;;;20.22;24.47;100713.81;5533729;32;33457;-84
2023/03/16 07:58:04;;;;;;;10.18;6.40;;;;;;;20.41;25.75;100713.09;5544028;32;34078;-84
2023/03/16 08:01:10;;;;;;;11.18;6.43;;;;;;;22.86;22.03;100716.22;5543931;32;34242;-84
2023/03/16 08:04:13;;;;;;;10.10;6.22;;;;;;;23.71;20.61;100723.31;5538835;32;34074;-84
2023/03/16 08:07:17;;;;;;;9.05;6.12;;;;;;;23.27;20.91;100734.81;5534245;32;33994;-84
2023/03/16 08:10:21;;;;;;;11.65;6.75;;;;;;;22.11;20.83;100731.31;5531459;32;34237;-83
2023/03/16 08:13:26;;;;;;;11.05;6.00;;;;;;;24.02;20.16;100728.31;5535154;32;33985;-84
2023/03/16 08:16:30;;;;;;;7.60;5.57;;;;;;;22.61;20.38;100729.41;5538463;32;34647;-83
2023/03/16 08:19:33;;;;;;;7.43;5.15;;;;;;;23.62;19.15;100729.63;5538764;32;34094;-86
2023/03/16 08:22:37;;;;;;;9.85;5.80;;;;;;;23.37;19.23;100740.19;5538854;32;34010;-84
2023/03/16 08:25:40;;;;;;;7.90;5.78;;;;;;;23.77;20.06;100744.34;5516618;32;34258;-84
2023/03/16 08:28:45;;;;;;;6.60;5.75;;;;;;;25.68;17.56;100755.53;5514335;32;33596;-85
2023/03/16 08:31:48;;;;;;;8.90;5.72;;;;;;;21.35;21.38;100743.56;5532565;32;33665;-85
2023/03/16 08:34:52;;;;;;;6.57;5.72;;;;;;;23.08;21.06;100742.03;5530468;32;34146;-86
2023/03/16 08:37:55;;;;;;;10.25;5.70;;;;;;;22.22;20.46;100749.22;5533163;32;33907;-84
2023/03/16 08:40:58;;;;;;;8.57;6.05;;;;;;;20.12;22.15;100744.19;5527859;32;34021;-84
2023/03/16 08:44:02;;;;;;;8.13;5.35;;;;;;;21.50;21.45;100747.59;5545872;32;34023;-85
2023/03/16 08:47:05;;;;;;;8.85;5.87;;;;;;;19.06;22.79;100751.91;5532895;32;35088;-84
2023/03/16 08:50:14;;;;;;;6.65;5.50;;;;;;;18.69;23.47;100742.19;5532355;32;33440;-86
2023/03/16 08:53:17;;;;;;;9.07;5.35;;;;;;;18.32;24.63;100744.06;5538252;32;35274;-84
2023/03/16 08:56:21;;;;;;;8.85;5.47;;;;;;;15.62;27.01;100753.06;5543523;32;33651;-83
2023/03/16 08:59:23;;;;;;;10.82;5.45;;;;;;;16.12;27.46;100748.06;5534633;32;34789;-82
2023/03/16 09:02:32;;;;;;;11.30;5.60;;;;;;;12.95;29.62;100757.06;5531393;32;34028;-83
2023/03/16 09:05:34;;;;;;;11.12;5.47;;;;;;;13.30;31.72;100746.31;5530575;32;34199;-85
2023/03/16 09:08:38;;;;;;;9.55;5.80;;;;;;;11.35;33.24;100757.03;5533578;32;33669;-84
2023/03/16 09:11:43;;;;;;;14.05;6.05;;;;;;;12.15;33.37;100751.41;5532361;32;34584;-83
2023/03/16 09:14:45;;;;;;;11.02;5.80;;;;;;;12.18;35.95;100761.91;5532546;32;33817;-83
2023/03/16 09:17:49;;;;;;;12.70;5.75;;;;;;;12.60;33.09;100763.31;5531480;32;33939;-84
2023/03/16 09:20:56;;;;;;;9.07;6.22;;;;;;;12.54;33.62;100766.31;5531176;32;34591;-85
2023/03/16 09:24:02;;;;;;;13.15;6.50;;;;;;;10.81;36.18;100763.81;5531339;32;35154;-85
2023/03/16 09:27:05;;;;;;;11.95;6.30;;;;;;;11.50;35.26;100781.97;5531405;32;33940;-89
2023/03/16 09:30:09;;;;;;;10.70;6.40;;;;;;;12.32;35.39;100771.88;5531864;32;34669;-88
2023/03/16 09:33:12;;;;;;;12.55;5.90;;;;;;;11.21;36.59;100773.59;5533539;32;34273;-88
2023/03/16 09:36:15;;;;;;;10.68;6.20;;;;;;;12.57;33.70;100773.28;5518017;32;33941;-84
2023/03/16 09:39:18;;;;;;;12.75;6.28;;;;;;;12.94;34.15;100774.84;5547294;32;33717;-84
2023/03/16 09:42:33;;;;;;;14.15;5.72;;;;;;;12.33;34.22;100773.59;5545563;32;34648;-83
2023/03/16 09:45:45;;;;;;;6.10;4.55;;;;;;;12.43;34.03;100779.28;5552197;32;34503;-84
2023/03/16 09:48:48;;;;;;;5.72;4.68;;;;;;;11.65;31.30;100781.25;5541125;31;34737;-84
2023/03/16 09:52:05;;;;;;;6.57;4.75;;;;;;;11.76;31.73;100770.09;5534003;32;35418;-84
2023/03/16 09:55:33;;;;;;;7.72;4.75;;;;;;;11.95;31.05;100777.19;5532737;32;33925;-83
2023/03/16 09:58:36;;;;;;;6.93;4.70;;;;;;;12.32;30.52;100767.38;5531728;32;33990;-82
2023/03/16 10:01:47;;;;;;;7.82;4.68;;;;;;;12.65;30.71;100779.91;5523443;32;33930;-83
2023/03/16 10:05:08;;;;;;;6.95;4.57;;;;;;;13.15;31.41;100779.09;5521666;32;35048;-83
2023/03/16 10:08:14;;;;;;;6.68;4.20;;;;;;;13.13;29.61;100783.66;5531068;32;33630;-83
2023/03/16 10:11:38;;;;;;;7.12;4.20;;;;;;;13.78;29.24;100779.25;5529029;32;34102;-84
2023/03/16 10:14:46;;;;;;;8.15;4.40;;;;;;;14.47;29.74;100766.34;5522996;32;34582;-85
2023/03/16 10:18:06;;;;;;;6.97;4.45;;;;;;;13.75;28.96;100781.12;5541896;32;35130;-84
2023/03/16 10:21:15;;;;;;;6.78;4.30;;;;;;;13.77;28.45;100780.22;5528677;32;33958;-85
2023/03/16 10:24:24;;;;;;;7.43;4.12;;;;;;;13.07;28.58;100791.03;5514992;32;33917;-84
2023/03/16 10:27:37;;;;;;;7.32;4.40;;;;;;;14.20;28.70;100788.41;5513842;32;34253;-84
2023/03/16 10:30:41;;;;;;;5.78;3.90;;;;;;;14.54;28.39;100788.22;5523984;32;33910;-83
2023/03/16 10:33:49;;;;;;;7.05;4.50;;;;;;;13.62;27.51;100782.78;5537787;32;34492;-85
2023/03/16 10:36:53;;;;;;;6.97;4.55;;;;;;;12.91;28.70;100792.78;5511838;32;33929;-84
2023/03/16 10:39:59;;;;;;;5.97;3.85;;;;;;;15.41;28.53;100785.59;5551765;32;33675;-83
2023/03/16 10:43:13;;;;;;;5.50;3.50;;;;;;;17.05;23.59;100790.91;5536839;32;34235;-84
2023/03/16 10:46:16;;;;;;;5.18;3.85;;;;;;;17.86;21.89;100795.84;5533912;32;34950;-84
2023/03/16 10:49:26;;;;;;;4.68;3.55;;;;;;;16.77;22.66;100788.31;5549165;32;33811;-84
2023/03/16 10:52:47;;;;;;;9.45;3.97;;;;;;;16.07;24.23;100784.09;5539266;32;34550;-85
2023/03/16 10:55:55;;;;;;;8.57;3.92;;;;;;;15.58;24.63;100784.50;5533441;32;34841;-85
2023/03/16 10:58:59;;;;;;;5.43;3.67;;;;;;;15.29;24.95;100776.53;5543828;32;35196;-85
2023/03/16 11:02:16;;;;;;;7.85;3.80;;;;;;;14.53;25.58;100779.34;5546611;32;34355;-85
2023/03/16 11:05:22;;;;;;;6.75;3.87;;;;;;;13.03;26.82;100778.81;5545980;32;34356;-86
2023/03/16 11:08:30;;;;;;;5.95;3.83;;;;;;;12.53;27.68;100777.91;5544486;32;33830;-84
2023/03/16 11:11:35;;;;;;;4.35;3.40;;;;;;;14.76;27.01;100768.25;5549919;32;32927;-84
2023/03/16 11:14:48;;;;;;;5.28;3.40;;;;;;;16.98;21.83;100780.59;5560793;32;34045;-88
2023/03/16 11:17:54;;;;;;;3.53;3.22;;;;;;;17.73;20.75;100777.13;5562756;32;33921;-88
2023/03/16 11:21:04;;;;;;;5.18;3.55;;;;;;;17.71;21.02;100773.69;5559195;32;34179;-84
2023/03/16 11:24:51;;;;;;;5.35;3.40;;;;;;;14.82;23.64;100775.87;5563927;32;34088;-84
2023/03/16 11:28:12;;;;;;;4.75;3.40;;;;;;;13.73;24.33;100774.19;5546080;32;33747;-84
2023/03/16 11:31:38;;;;;;;6.05;3.90;;;;;;;12.11;26.36;100772.87;5556269;32;34785;-83
2023/03/16 11:34:43;;;;;;;6.10;3.45;;;;;;;12.00;27.55;100764.53;5566832;32;34014;-83
2023/03/16 11:38:09;;;;;;;6.18;3.62;;;;;;;13.12;26.00;100760.62;5560669;32;34686;-83
2023/03/16 11:41:32;;;;;;;6.22;3.58;;;;;;;14.84;23.55;100749.06;5555273;32;33853;-81
2023/03/16 11:44:54;;;;;;;4.43;3.30;;;;;;;15.75;24.06;100755.81;5554711;32;34717;-86
2023/03/16 11:48:09;;;;;;;4.20;3.08;;;;;;;13.47;26.71;100741.84;5565282;32;33824;-83
2023/03/16 11:51:41;;;;;;;5.57;3.15;;;;;;;14.00;24.99;100745.09;5558314;32;34886;-83
2023/03/16 11:54:56;;;;;;;4.37;3.12;;;;;;;13.94;24.21;100745.41;5536968;32;34006;-83
2023/03/16 11:58:31;;;;;;;4.30;3.10;;;;;;;13.78;24.56;100742.78;5558116;32;34960;-83
2023/03/16 12:01:53;;;;;;;4.05;2.65;;;;;;;12.96;25.22;100740.16;5550376;32;35093;-83
2023/03/16 12:05:42;;;;;;;4.00;2.85;;;;;;;12.77;24.30;100737.63;5563323;32;34166;-83
2023/03/16 12:09:06;;;;;;;3.92;2.53;;;;;;;12.04;23.85;100746.66;5557054;32;33832;-85
2023/03/16 12:12:18;;;;;;;3.55;2.90;;;;;;;12.43;23.70;100734.94;5563354;32;33905;-84
2023/03/16 12:15:44;;;;;;;3.37;2.28;;;;;;;10.89;23.53;100736.94;5566413;32;34110;-83
2023/03/16 12:19:01;;;;;;;2.58;2.15;;;;;;;10.78;23.50;100735.63;5557228;32;35102;-82
2023/03/16 12:22:27;;;;;;;2.53;1.95;;;;;;;10.61;23.78;100735.53;5562536;32;33877;-83
2023/03/16 12:25:38;;;;;;;5.10;2.53;;;;;;;10.84;23.20;100736.28;5570414;32;34389;-83
2023/03/16 12:28:42;;;;;;;2.72;2.22;;;;;;;11.39;22.37;100730.22;5569497;32;33950;-82
2023/03/16 12:32:19;;;;;;;2.97;2.20;;;;;;;11.57;22.95;100731.13;5570092;32;33942;-82
2023/03/16 12:35:52;;;;;;;4.12;2.25;;;;;;;11.17;22.37;100730.38;5570259;32;33775;-88
2023/03/16 12:39:05;;;;;;;3.15;2.12;;;;;;;10.70;22.50;100731.63;5537729;32;35493;-83
2023/03/16 12:42:26;;;;;;;3.95;2.00;;;;;;;11.05;23.07;100732.66;5534338;32;33286;-82
2023/03/16 12:45:56;;;;;;;4.97;2.28;;;;;;;11.04;23.17;100722.13;5537790;32;34057;-83
2023/03/16 12:49:03;;;;;;;3.30;2.17;;;;;;;11.06;22.92;100722.91;5554438;32;34078;-83
2023/03/16 12:52:09;;;;;;;3.00;1.80;;;;;;;10.80;22.85;100724.13;5553815;32;34209;-82
2023/03/16 12:55:12;;;;;;;3.67;1.92;;;;;;;10.87;22.70;100728.19;5551078;32;34277;-82
2023/03/16 12:58:16;;;;;;;1.73;1.62;;;;;;;10.62;23.06;100726.66;5549852;32;34079;-82
2023/03/16 13:01:27;;;;;;;5.82;2.03;;;;;;;10.75;23.79;100732.25;5549723;32;34108;-83
2023/03/16 13:04:39;;;;;;;3.22;1.90;;;;;;;10.35;22.34;100734.84;5550516;32;34499;-82
2023/03/16 13:07:50;;;;;;;2.67;1.67;;;;;;;10.41;22.01;100731.06;5548833;32;34807;-82
2023/03/16 13:11:08;;;;;;;2.75;1.65;;;;;;;10.19;21.82;100732.84;5543377;32;33784;-82
2023/03/16 13:14:27;;;;;;;3.17;1.60;;;;;;;9.97;22.16;100723.12;5530767;32;34685;-83
2023/03/16 13:17:32;;;;;;;4.05;1.90;;;;;;;10.15;21.93;100741.00;5536788;32;33802;-84
2023/03/16 13:20:52;;;;;;;5.18;1.90;;;;;;;10.08;21.40;100738.63;5534192;32;33938;-83
2023/03/16 13:24:00;;;;;;;1.52;1.40;;;;;;;10.10;21.25;100726.16;5535914;32;34308;-83
2023/03/16 13:27:18;;;;;;;2.90;1.48;;;;;;;10.01;21.28;100730.97;5547750;32;33747;-83
2023/03/16 13:30:24;;;;;;;1.95;1.58;;;;;;;10.00;20.87;100723.97;5552107;32;34167;-84
2023/03/16 13:33:32;;;;;;;3.60;1.87;;;;;;;9.97;21.15;100731.09;5559817;32;35288;-84
2023/03/16 13:36:36;;;;;;;2.10;1.40;;;;;;;10.13;21.29;100727.81;5526951;32;34709;-83
2023/03/16 13:39:39;;;;;;;2.42;1.75;;;;;;;10.33;21.08;100732.28;5530065;32;34001;-83
2023/03/16 13:42:45;;;;;;;1.80;1.40;;;;;;;10.17;21.25;100734.72;5532424;32;33711;-83
2023/03/16 13:45:48;;;;;;;2.47;2.03;;;;;;;10.25;21.66;100739.69;5515776;32;34854;-84
2023/03/16 13:48:51;;;;;;;2.17;1.60;;;;;;;10.05;23.02;100733.44;5524790;32;35522;-83
2023/03/16 13:51:54;;;;;;;2.97;1.70;;;;;;;9.98;23.70;100724.00;5524784;32;33988;-83
2023/03/16 13:54:58;;;;;;;3.22;1.70;;;;;;;9.55;22.51;100726.62;5528845;32;34509;-83
2023/03/16 13:58:02;;;;;;;4.00;1.90;;;;;;;9.42;22.65;100739.50;5517856;32;33852;-83
2023/03/16 14:01:19;;;;;;;3.37;2.00;;;;;;;9.06;22.71;100737.34;5530117;32;35745;-83
2023/03/16 14:04:24;;;;;;;4.40;2.10;;;;;;;9.36;22.68;100734.44;5524110;32;33849;-84
2023/03/16 14:07:27;;;;;;;3.87;2.25;;;;;;;9.43;22.81;100728.84;5533640;32;34162;-84
2023/03/16 14:10:35;;;;;;;5.25;1.90;;;;;;;9.65;22.90;100738.56;5551460;32;34352;-83
2023/03/16 14:13:38;;;;;;;2.58;1.70;;;;;;;9.93;24.54;100733.94;5556769;32;34960;-83
2023/03/16 14:16:42;;;;;;;2.00;1.67;;;;;;;10.13;23.55;100726.94;5551006;32;34553;-83
2023/03/16 14:19:57;;;;;;;2.65;1.67;;;;;;;10.15;22.35;100727.75;5549621;32;33952;-84
2023/03/16 14:23:00;;;;;;;1.30;1.20;;;;;;;9.89;20.14;100743.81;5550805;32;34578;-88
2023/03/16 14:26:05;;;;;;;2.30;1.42;;;;;;;9.80;18.95;100742.41;5543822;32;33537;-88
2023/03/16 14:29:29;;;;;;;1.90;1.40;;;;;;;9.87;19.70;100740.38;5550834;32;34313;-84
2023/03/16 14:32:33;;;;;;;2.40;1.45;;;;;;;9.90;19.79;100739.38;5536302;32;34364;-84
2023/03/16 14:35:42;;;;;;;1.52;1.42;;;;;;;9.66;19.73;100742.09;5550934;32;34951;-84
2023/03/16 14:38:47;;;;;;;1.60;1.50;;;;;;;9.88;19.62;100744.75;5549364;32;33925;-83
2023/03/16 14:41:51;;;;;;;2.03;1.55;;;;;;;10.38;20.90;100747.97;5545405;32;34137;-83
2023/03/16 14:44:59;;;;;;;4.80;2.17;;;;;;;10.17;23.37;100740.03;5549415;32;33931;-82
2023/03/16 14:48:15;;;;;;;2.12;1.73;;;;;;;9.98;21.95;100754.03;5553583;32;35058;-83
2023/03/16 14:51:18;;;;;;;4.07;2.05;;;;;;;10.37;24.55;100754.22;5553893;32;33980;-82
2023/03/16 14:54:21;;;;;;;5.43;1.90;;;;;;;10.47;23.79;100752.06;5549245;32;35239;-82
2023/03/16 14:57:27;;;;;;;6.40;1.90;;;;;;;10.48;22.12;100757.31;5552823;32;34614;-81
2023/03/16 15:00:31;;;;;;;3.85;2.03;;;;;;;10.05;21.80;100761.75;5549019;32;35284;-82
2023/03/16 15:03:42;;;;;;;2.42;1.70;;;;;;;10.05;22.46;100765.25;5550657;32;34051;-83
2023/03/16 15:06:46;;;;;;;3.42;1.75;;;;;;;9.82;24.56;100763.53;5550348;32;34054;-83
2023/03/16 15:09:49;;;;;;;2.30;1.67;;;;;;;10.01;22.23;100760.97;5550554;32;33908;-82
2023/03/16 15:13:03;;;;;;;5.12;1.62;;;;;;;9.89;21.32;100764.12;5550801;32;34072;-82
2023/03/16 15:16:10;;;;;;;2.28;1.70;;;;;;;10.33;20.99;100765.87;5551246;32;35187;-82
2023/03/16 15:19:13;;;;;;;3.28;1.70;;;;;;;10.21;20.91;100762.81;5550482;32;34715;-83
2023/03/16 15:22:39;;;;;;;3.50;1.80;;;;;;;9.90;20.88;100772.03;5551019;32;34001;-82
2023/03/16 15:25:44;;;;;;;2.50;1.75;;;;;;;9.75;23.21;100759.41;5549838;32;34066;-82
2023/03/16 15:28:47;;;;;;;5.57;2.03;;;;;;;9.81;22.48;100770.59;5551881;32;33679;-86
2023/03/16 15:31:50;;;;;;;4.00;1.52;;;;;;;9.73;22.62;100771.84;5553575;32;34104;-86
2023/03/16 15:34:56;;;;;;;1.90;1.60;;;;;;;9.63;21.77;100774.00;5557538;32;32652;-83
2023/03/16 15:38:03;;;;;;;3.62;1.67;;;;;;;9.54;20.81;100775.22;5550329;32;34192;-82
2023/03/16 15:41:10;;;;;;;1.62;1.52;;;;;;;9.50;22.76;100776.28;5550874;32;34136;-82
2023/03/16 15:44:13;;;;;;;2.15;1.62;;;;;;;9.43;21.06;100783.59;5551585;32;34015;-83
2023/03/16 15:47:16;;;;;;;1.83;1.60;;;;;;;9.33;21.30;100791.00;5551671;32;34004;-83
2023/03/16 15:50:23;;;;;;;3.10;1.40;;;;;;;9.13;21.99;100790.00;5553297;32;33684;-82
2023/03/16 15:53:40;;;;;;;2.05;1.40;;;;;;;9.11;21.42;100793.59;5557577;32;33955;-83
2023/03/16 15:56:45;;;;;;;1.90;1.70;;;;;;;8.97;21.02;100797.62;5552978;32;33932;-83
2023/03/16 15:59:58;;;;;;;2.53;1.67;;;;;;;8.83;21.51;100805.19;5550460;32;33717;-82
2023/03/16 16:03:04;;;;;;;2.35;1.65;;;;;;;8.81;21.50;100797.31;5549252;32;34531;-82
2023/03/16 16:06:10;;;;;;;2.35;1.60;;;;;;;8.66;21.93;100811.06;5550335;32;34940;-83
2023/03/16 16:09:13;;;;;;;4.40;1.77;;;;;;;8.57;22.25;100809.59;5550083;32;34307;-83
2023/03/16 16:12:20;;;;;;;3.28;2.22;;;;;;;8.46;22.79;100808.16;5557577;32;35222;-83
2023/03/16 16:15:32;;;;;;;2.15;1.98;;;;;;;8.46;22.78;100813.44;5564236;32;34360;-83
2023/03/16 16:18:36;;;;;;;3.10;1.90;;;;;;;8.33;22.90;100820.06;5555537;32;34723;-83
2023/03/16 16:21:39;;;;;;;2.62;1.73;;;;;;;8.26;23.34;100821.19;5549941;32;33987;-83
2023/03/16 16:24:45;;;;;;;2.17;1.62;;;;;;;8.12;22.34;100832.19;5549674;32;34077;-83
